sensor_id;sensor_type;location;lat;lon;timestamp;temperature;humidity
34231;DHT22;21574;51.538;-0.084;2022-08-25T00:01:36;28.80;57.50
34231;DHT22;21574;51.538;-0.084;2022-08-25T00:04:03;28.80;57.50
34231;DHT22;21574;51.538;-0.084;2022-08-25T00:06:29;28.80;57.50
34231;DHT22;21574;51.538;-0.084;2022-08-25T00:08:54;28.80;57.50
34231;DHT22;21574;51.538;-0.084;2022-08-25T00:11:24;28.80;57.50
34231;DHT22;21574;51.538;-0.084;2022-08-25T00:13:54;28.80;57.50
34231;DHT22;21574;51.538;-0.084;2022-08-25T00:16:20;28.80;57.50
34231;DHT22;21574;51.538;-0.084;2022-08-25T00:18:48;28.80;57.40
34231;DHT22;21574;51.538;-0.084;2022-08-25T00:21:14;28.80;57.50
34231;DHT22;21574;51.538;-0.084;2022-08-25T00:23:40;28.80;57.30
34231;DHT22;21574;51.538;-0.084;2022-08-25T00:26:06;28.80;57.30
34231;DHT22;21574;51.538;-0.084;2022-08-25T00:28:31;28.80;57.50
34231;DHT22;21574;51.538;-0.084;2022-08-25T00:30:58;28.80;57.40
34231;DHT22;21574;51.538;-0.084;2022-08-25T00:33:24;28.80;57.50
34231;DHT22;21574;51.538;-0.084;2022-08-25T00:35:50;28.80;57.50
34231;DHT22;21574;51.538;-0.084;2022-08-25T00:38:16;28.80;57.60
34231;DHT22;21574;51.538;-0.084;2022-08-25T00:40:42;28.80;57.60
34231;DHT22;21574;51.538;-0.084;2022-08-25T00:43:08;28.70;57.60
34231;DHT22;21574;51.538;-0.084;2022-08-25T00:45:34;28.80;57.40
34231;DHT22;21574;51.538;-0.084;2022-08-25T00:47:59;28.70;57.40
34231;DHT22;21574;51.538;-0.084;2022-08-25T00:50:26;28.80;57.50
34231;DHT22;21574;51.538;-0.084;2022-08-25T00:52:53;28.80;57.30
34231;DHT22;21574;51.538;-0.084;2022-08-25T00:55:20;28.70;57.30
34231;DHT22;21574;51.538;-0.084;2022-08-25T00:57:55;28.70;57.30
34231;DHT22;21574;51.538;-0.084;2022-08-25T01:00:22;28.70;57.30
34231;DHT22;21574;51.538;-0.084;2022-08-25T01:02:49;28.70;57.30
34231;DHT22;21574;51.538;-0.084;2022-08-25T01:05:15;28.70;57.30
34231;DHT22;21574;51.538;-0.084;2022-08-25T01:07:42;28.70;57.10
34231;DHT22;21574;51.538;-0.084;2022-08-25T01:10:08;28.70;57.10
34231;DHT22;21574;51.538;-0.084;2022-08-25T01:12:34;28.70;57.10
34231;DHT22;21574;51.538;-0.084;2022-08-25T01:15:01;28.70;57.10
34231;DHT22;21574;51.538;-0.084;2022-08-25T01:17:34;28.70;57.20
34231;DHT22;21574;51.538;-0.084;2022-08-25T01:20:00;28.70;57.20
34231;DHT22;21574;51.538;-0.084;2022-08-25T01:22:25;28.60;57.10
34231;DHT22;21574;51.538;-0.084;2022-08-25T01:25:01;28.60;57.10
34231;DHT22;21574;51.538;-0.084;2022-08-25T01:27:28;28.60;57.00
34231;DHT22;21574;51.538;-0.084;2022-08-25T01:29:54;28.60;57.00
34231;DHT22;21574;51.538;-0.084;2022-08-25T01:32:19;28.70;57.10
34231;DHT22;21574;51.538;-0.084;2022-08-25T01:34:45;28.60;57.00
34231;DHT22;21574;51.538;-0.084;2022-08-25T01:37:11;28.60;57.00
34231;DHT22;21574;51.538;-0.084;2022-08-25T01:39:37;28.60;56.90
34231;DHT22;21574;51.538;-0.084;2022-08-25T01:44:34;28.60;56.90
34231;DHT22;21574;51.538;-0.084;2022-08-25T01:47:00;28.60;56.90
34231;DHT22;21574;51.538;-0.084;2022-08-25T01:49:26;28.60;56.90
34231;DHT22;21574;51.538;-0.084;2022-08-25T01:51:55;28.60;56.90
34231;DHT22;21574;51.538;-0.084;2022-08-25T01:54:21;28.60;56.90
34231;DHT22;21574;51.538;-0.084;2022-08-25T01:56:47;28.60;57.00
34231;DHT22;21574;51.538;-0.084;2022-08-25T01:59:16;28.60;57.00
34231;DHT22;21574;51.538;-0.084;2022-08-25T02:01:42;28.50;57.00
34231;DHT22;21574;51.538;-0.084;2022-08-25T02:04:07;28.60;57.10
34231;DHT22;21574;51.538;-0.084;2022-08-25T02:06:33;28.60;57.40
34231;DHT22;21574;51.538;-0.084;2022-08-25T02:09:04;28.50;57.20
34231;DHT22;21574;51.538;-0.084;2022-08-25T02:11:29;28.50;57.10
34231;DHT22;21574;51.538;-0.084;2022-08-25T02:13:55;28.60;57.30
34231;DHT22;21574;51.538;-0.084;2022-08-25T02:16:23;28.50;57.20
34231;DHT22;21574;51.538;-0.084;2022-08-25T02:18:49;28.50;57.20
34231;DHT22;21574;51.538;-0.084;2022-08-25T02:21:15;28.60;57.20
34231;DHT22;21574;51.538;-0.084;2022-08-25T02:23:41;28.50;57.20
34231;DHT22;21574;51.538;-0.084;2022-08-25T02:26:07;28.60;57.20
34231;DHT22;21574;51.538;-0.084;2022-08-25T02:28:33;28.50;57.10
34231;DHT22;21574;51.538;-0.084;2022-08-25T02:30:58;28.60;57.30
34231;DHT22;21574;51.538;-0.084;2022-08-25T02:33:24;28.50;57.20
34231;DHT22;21574;51.538;-0.084;2022-08-25T02:35:50;28.60;57.30
34231;DHT22;21574;51.538;-0.084;2022-08-25T02:38:16;28.50;57.20
34231;DHT22;21574;51.538;-0.084;2022-08-25T02:40:42;28.50;57.10
34231;DHT22;21574;51.538;-0.084;2022-08-25T02:43:07;28.50;57.20
34231;DHT22;21574;51.538;-0.084;2022-08-25T02:45:33;28.50;57.30
34231;DHT22;21574;51.538;-0.084;2022-08-25T02:47:58;28.50;57.30
34231;DHT22;21574;51.538;-0.084;2022-08-25T02:50:24;28.50;57.30
34231;DHT22;21574;51.538;-0.084;2022-08-25T02:52:50;28.50;57.50
34231;DHT22;21574;51.538;-0.084;2022-08-25T02:55:17;28.50;57.60
34231;DHT22;21574;51.538;-0.084;2022-08-25T02:57:42;28.50;57.60
34231;DHT22;21574;51.538;-0.084;2022-08-25T03:00:09;28.50;57.70
34231;DHT22;21574;51.538;-0.084;2022-08-25T03:02:35;28.40;57.50
34231;DHT22;21574;51.538;-0.084;2022-08-25T03:05:02;28.40;57.60
34231;DHT22;21574;51.538;-0.084;2022-08-25T03:07:27;28.40;57.70
34231;DHT22;21574;51.538;-0.084;2022-08-25T03:09:53;28.40;57.80
34231;DHT22;21574;51.538;-0.084;2022-08-25T03:12:18;28.40;57.80
34231;DHT22;21574;51.538;-0.084;2022-08-25T03:14:44;28.40;57.70
34231;DHT22;21574;51.538;-0.084;2022-08-25T03:17:10;28.40;57.80
34231;DHT22;21574;51.538;-0.084;2022-08-25T03:19:35;28.40;57.90
34231;DHT22;21574;51.538;-0.084;2022-08-25T03:22:01;28.40;57.90
34231;DHT22;21574;51.538;-0.084;2022-08-25T03:24:26;28.40;58.00
34231;DHT22;21574;51.538;-0.084;2022-08-25T03:26:52;28.40;58.50
34231;DHT22;21574;51.538;-0.084;2022-08-25T03:29:18;28.40;58.00
34231;DHT22;21574;51.538;-0.084;2022-08-25T03:31:44;28.40;58.10
34231;DHT22;21574;51.538;-0.084;2022-08-25T03:34:10;28.40;58.00
34231;DHT22;21574;51.538;-0.084;2022-08-25T03:36:36;28.40;58.00
34231;DHT22;21574;51.538;-0.084;2022-08-25T03:39:01;28.40;58.00
34231;DHT22;21574;51.538;-0.084;2022-08-25T03:41:28;28.40;58.10
34231;DHT22;21574;51.538;-0.084;2022-08-25T03:43:54;28.40;58.10
34231;DHT22;21574;51.538;-0.084;2022-08-25T03:46:21;28.40;58.10
34231;DHT22;21574;51.538;-0.084;2022-08-25T03:48:48;28.40;58.10
34231;DHT22;21574;51.538;-0.084;2022-08-25T03:51:20;28.40;58.10
34231;DHT22;21574;51.538;-0.084;2022-08-25T03:53:46;28.40;58.10
34231;DHT22;21574;51.538;-0.084;2022-08-25T03:56:11;28.40;58.10
34231;DHT22;21574;51.538;-0.084;2022-08-25T03:58:37;28.40;58.20
34231;DHT22;21574;51.538;-0.084;2022-08-25T04:01:02;28.30;58.10
34231;DHT22;21574;51.538;-0.084;2022-08-25T04:03:28;28.30;58.10
34231;DHT22;21574;51.538;-0.084;2022-08-25T04:05:53;28.30;58.10
34231;DHT22;21574;51.538;-0.084;2022-08-25T04:08:19;28.30;58.10
34231;DHT22;21574;51.538;-0.084;2022-08-25T04:10:44;28.30;58.10
34231;DHT22;21574;51.538;-0.084;2022-08-25T04:13:10;28.30;58.10
34231;DHT22;21574;51.538;-0.084;2022-08-25T04:15:36;28.30;58.50
34231;DHT22;21574;51.538;-0.084;2022-08-25T04:18:06;28.30;58.10
34231;DHT22;21574;51.538;-0.084;2022-08-25T04:20:31;28.30;57.80
34231;DHT22;21574;51.538;-0.084;2022-08-25T04:22:57;28.40;58.10
34231;DHT22;21574;51.538;-0.084;2022-08-25T04:25:25;28.30;58.00
34231;DHT22;21574;51.538;-0.084;2022-08-25T04:27:52;28.40;58.10
34231;DHT22;21574;51.538;-0.084;2022-08-25T04:30:17;28.40;57.70
34231;DHT22;21574;51.538;-0.084;2022-08-25T04:32:43;28.30;58.10
34231;DHT22;21574;51.538;-0.084;2022-08-25T04:35:08;28.30;58.00
34231;DHT22;21574;51.538;-0.084;2022-08-25T04:37:34;28.30;58.10
34231;DHT22;21574;51.538;-0.084;2022-08-25T04:40:00;28.30;58.30
34231;DHT22;21574;51.538;-0.084;2022-08-25T04:42:25;28.30;58.40
34231;DHT22;21574;51.538;-0.084;2022-08-25T04:44:51;28.40;58.80
34231;DHT22;21574;51.538;-0.084;2022-08-25T04:47:16;28.30;58.80
34231;DHT22;21574;51.538;-0.084;2022-08-25T04:49:42;28.30;58.90
34231;DHT22;21574;51.538;-0.084;2022-08-25T04:52:07;28.30;59.30
34231;DHT22;21574;51.538;-0.084;2022-08-25T04:54:33;28.30;59.90
34231;DHT22;21574;51.538;-0.084;2022-08-25T04:56:59;28.30;59.30
34231;DHT22;21574;51.538;-0.084;2022-08-25T04:59:25;28.30;59.00
34231;DHT22;21574;51.538;-0.084;2022-08-25T05:01:50;28.30;58.90
34231;DHT22;21574;51.538;-0.084;2022-08-25T05:04:19;28.30;59.00
34231;DHT22;21574;51.538;-0.084;2022-08-25T05:06:45;28.20;59.00
34231;DHT22;21574;51.538;-0.084;2022-08-25T05:09:11;28.30;59.10
34231;DHT22;21574;51.538;-0.084;2022-08-25T05:11:36;28.20;59.00
34231;DHT22;21574;51.538;-0.084;2022-08-25T05:14:02;28.30;59.80
34231;DHT22;21574;51.538;-0.084;2022-08-25T05:16:27;28.30;59.10
34231;DHT22;21574;51.538;-0.084;2022-08-25T05:18:53;28.20;59.20
34231;DHT22;21574;51.538;-0.084;2022-08-25T05:21:20;28.20;59.10
34231;DHT22;21574;51.538;-0.084;2022-08-25T05:23:46;28.20;59.00
34231;DHT22;21574;51.538;-0.084;2022-08-25T05:26:14;28.20;58.80
34231;DHT22;21574;51.538;-0.084;2022-08-25T05:28:39;28.30;58.90
34231;DHT22;21574;51.538;-0.084;2022-08-25T05:31:06;28.30;59.00
34231;DHT22;21574;51.538;-0.084;2022-08-25T05:33:35;28.30;58.90
34231;DHT22;21574;51.538;-0.084;2022-08-25T05:36:00;28.30;58.80
34231;DHT22;21574;51.538;-0.084;2022-08-25T05:38:26;28.30;60.10
34231;DHT22;21574;51.538;-0.084;2022-08-25T05:40:53;28.20;60.00
34231;DHT22;21574;51.538;-0.084;2022-08-25T05:43:20;28.30;59.70
34231;DHT22;21574;51.538;-0.084;2022-08-25T05:45:46;28.30;59.60
34231;DHT22;21574;51.538;-0.084;2022-08-25T05:48:11;28.20;59.50
34231;DHT22;21574;51.538;-0.084;2022-08-25T05:50:37;28.20;59.40
34231;DHT22;21574;51.538;-0.084;2022-08-25T05:53:02;28.20;59.90
34231;DHT22;21574;51.538;-0.084;2022-08-25T05:55:28;28.20;58.80
34231;DHT22;21574;51.538;-0.084;2022-08-25T05:57:53;28.10;59.70
34231;DHT22;21574;51.538;-0.084;2022-08-25T06:00:19;28.10;59.60
34231;DHT22;21574;51.538;-0.084;2022-08-25T06:02:44;28.20;59.90
34231;DHT22;21574;51.538;-0.084;2022-08-25T06:07:37;28.20;59.90
34231;DHT22;21574;51.538;-0.084;2022-08-25T06:10:04;28.10;60.50
34231;DHT22;21574;51.538;-0.084;2022-08-25T06:12:33;28.20;60.40
34231;DHT22;21574;51.538;-0.084;2022-08-25T06:15:00;28.20;60.20
34231;DHT22;21574;51.538;-0.084;2022-08-25T06:17:26;28.10;59.80
34231;DHT22;21574;51.538;-0.084;2022-08-25T06:19:52;28.20;59.90
34231;DHT22;21574;51.538;-0.084;2022-08-25T06:22:18;28.10;59.80
34231;DHT22;21574;51.538;-0.084;2022-08-25T06:24:43;28.20;59.90
34231;DHT22;21574;51.538;-0.084;2022-08-25T06:27:08;28.10;59.70
34231;DHT22;21574;51.538;-0.084;2022-08-25T06:29:34;28.10;59.70
34231;DHT22;21574;51.538;-0.084;2022-08-25T06:31:59;28.20;59.70
34231;DHT22;21574;51.538;-0.084;2022-08-25T06:34:25;28.20;60.20
34231;DHT22;21574;51.538;-0.084;2022-08-25T06:36:51;28.20;59.80
34231;DHT22;21574;51.538;-0.084;2022-08-25T06:39:16;28.20;59.80
34231;DHT22;21574;51.538;-0.084;2022-08-25T06:41:42;28.20;59.80
34231;DHT22;21574;51.538;-0.084;2022-08-25T06:44:07;28.20;59.80
34231;DHT22;21574;51.538;-0.084;2022-08-25T06:46:35;28.10;59.60
34231;DHT22;21574;51.538;-0.084;2022-08-25T06:49:00;28.10;59.60
34231;DHT22;21574;51.538;-0.084;2022-08-25T06:51:26;28.10;59.60
34231;DHT22;21574;51.538;-0.084;2022-08-25T06:53:51;28.10;59.50
34231;DHT22;21574;51.538;-0.084;2022-08-25T06:56:18;28.10;59.50
34231;DHT22;21574;51.538;-0.084;2022-08-25T06:58:44;28.10;59.50
34231;DHT22;21574;51.538;-0.084;2022-08-25T07:01:15;28.00;59.40
34231;DHT22;21574;51.538;-0.084;2022-08-25T07:03:41;28.00;59.40
34231;DHT22;21574;51.538;-0.084;2022-08-25T07:06:07;28.00;59.30
34231;DHT22;21574;51.538;-0.084;2022-08-25T07:08:33;28.00;59.30
34231;DHT22;21574;51.538;-0.084;2022-08-25T07:11:04;28.00;59.30
34231;DHT22;21574;51.538;-0.084;2022-08-25T07:13:30;28.00;59.20
34231;DHT22;21574;51.538;-0.084;2022-08-25T07:15:56;28.00;59.30
34231;DHT22;21574;51.538;-0.084;2022-08-25T07:18:21;28.00;59.20
34231;DHT22;21574;51.538;-0.084;2022-08-25T07:20:47;28.00;59.20
34231;DHT22;21574;51.538;-0.084;2022-08-25T07:23:13;28.00;59.20
34231;DHT22;21574;51.538;-0.084;2022-08-25T07:25:38;28.00;59.20
34231;DHT22;21574;51.538;-0.084;2022-08-25T07:28:04;28.00;59.10
34231;DHT22;21574;51.538;-0.084;2022-08-25T07:30:29;28.00;59.60
34231;DHT22;21574;51.538;-0.084;2022-08-25T07:32:55;28.00;59.10
34231;DHT22;21574;51.538;-0.084;2022-08-25T07:35:21;28.00;59.10
34231;DHT22;21574;51.538;-0.084;2022-08-25T07:37:54;28.00;59.10
34231;DHT22;21574;51.538;-0.084;2022-08-25T07:40:25;27.90;59.00
34231;DHT22;21574;51.538;-0.084;2022-08-25T07:42:52;28.00;59.00
34231;DHT22;21574;51.538;-0.084;2022-08-25T07:45:18;27.90;59.00
34231;DHT22;21574;51.538;-0.084;2022-08-25T07:47:44;27.90;59.50
34231;DHT22;21574;51.538;-0.084;2022-08-25T07:50:10;28.00;59.00
34231;DHT22;21574;51.538;-0.084;2022-08-25T07:52:37;27.90;58.90
34231;DHT22;21574;51.538;-0.084;2022-08-25T07:55:02;27.90;58.90
34231;DHT22;21574;51.538;-0.084;2022-08-25T07:57:28;27.90;58.90
34231;DHT22;21574;51.538;-0.084;2022-08-25T07:59:54;27.90;59.00
34231;DHT22;21574;51.538;-0.084;2022-08-25T08:02:19;27.90;59.00
34231;DHT22;21574;51.538;-0.084;2022-08-25T08:04:46;27.90;58.90
34231;DHT22;21574;51.538;-0.084;2022-08-25T08:07:14;27.90;58.90
34231;DHT22;21574;51.538;-0.084;2022-08-25T08:09:39;27.90;58.90
34231;DHT22;21574;51.538;-0.084;2022-08-25T08:12:05;27.80;58.90
34231;DHT22;21574;51.538;-0.084;2022-08-25T08:14:31;27.80;58.90
34231;DHT22;21574;51.538;-0.084;2022-08-25T08:16:56;27.80;58.90
34231;DHT22;21574;51.538;-0.084;2022-08-25T08:19:22;27.80;58.80
34231;DHT22;21574;51.538;-0.084;2022-08-25T08:21:47;27.80;58.80
34231;DHT22;21574;51.538;-0.084;2022-08-25T08:24:13;27.80;58.80
34231;DHT22;21574;51.538;-0.084;2022-08-25T08:26:39;27.80;58.80
34231;DHT22;21574;51.538;-0.084;2022-08-25T08:29:04;27.80;58.90
34231;DHT22;21574;51.538;-0.084;2022-08-25T08:31:30;27.80;58.90
34231;DHT22;21574;51.538;-0.084;2022-08-25T08:33:56;27.80;58.90
34231;DHT22;21574;51.538;-0.084;2022-08-25T08:36:22;27.80;58.80
34231;DHT22;21574;51.538;-0.084;2022-08-25T08:38:48;27.80;58.90
34231;DHT22;21574;51.538;-0.084;2022-08-25T08:41:38;27.80;58.90
34231;DHT22;21574;51.538;-0.084;2022-08-25T08:44:20;27.80;58.90
34231;DHT22;21574;51.538;-0.084;2022-08-25T08:49:48;27.80;58.90
34231;DHT22;21574;51.538;-0.084;2022-08-25T08:52:16;27.70;58.90
34231;DHT22;21574;51.538;-0.084;2022-08-25T08:54:44;27.70;58.80
34231;DHT22;21574;51.538;-0.084;2022-08-25T08:57:11;27.80;58.90
34231;DHT22;21574;51.538;-0.084;2022-08-25T08:59:39;27.70;58.80
34231;DHT22;21574;51.538;-0.084;2022-08-25T09:02:06;27.80;58.80
34231;DHT22;21574;51.538;-0.084;2022-08-25T09:04:41;27.70;58.70
34231;DHT22;21574;51.538;-0.084;2022-08-25T09:07:22;27.80;58.80
34231;DHT22;21574;51.538;-0.084;2022-08-25T09:09:49;27.70;58.70
34231;DHT22;21574;51.538;-0.084;2022-08-25T09:12:32;27.70;58.70
34231;DHT22;21574;51.538;-0.084;2022-08-25T09:15:03;27.70;58.70
34231;DHT22;21574;51.538;-0.084;2022-08-25T09:27:54;27.70;58.80
34231;DHT22;21574;51.538;-0.084;2022-08-25T09:30:21;27.70;58.80
34231;DHT22;21574;51.538;-0.084;2022-08-25T09:32:48;27.70;58.80
34231;DHT22;21574;51.538;-0.084;2022-08-25T09:35:19;27.70;58.80
34231;DHT22;21574;51.538;-0.084;2022-08-25T09:38:01;27.70;58.80
34231;DHT22;21574;51.538;-0.084;2022-08-25T09:40:27;27.70;58.70
34231;DHT22;21574;51.538;-0.084;2022-08-25T09:42:55;27.70;58.70
34231;DHT22;21574;51.538;-0.084;2022-08-25T09:45:32;27.70;58.70
34231;DHT22;21574;51.538;-0.084;2022-08-25T09:47:58;27.70;58.70
34231;DHT22;21574;51.538;-0.084;2022-08-25T09:50:24;27.70;58.70
34231;DHT22;21574;51.538;-0.084;2022-08-25T09:52:54;27.70;58.70
34231;DHT22;21574;51.538;-0.084;2022-08-25T09:55:29;27.70;58.70
34231;DHT22;21574;51.538;-0.084;2022-08-25T09:57:56;27.70;58.70
34231;DHT22;21574;51.538;-0.084;2022-08-25T10:00:23;27.60;58.70
34231;DHT22;21574;51.538;-0.084;2022-08-25T10:05:34;27.60;58.80
34231;DHT22;21574;51.538;-0.084;2022-08-25T10:08:03;27.60;58.80
34231;DHT22;21574;51.538;-0.084;2022-08-25T10:10:37;27.60;58.90
34231;DHT22;21574;51.538;-0.084;2022-08-25T10:13:12;27.60;58.80
34231;DHT22;21574;51.538;-0.084;2022-08-25T10:15:37;27.60;58.80
34231;DHT22;21574;51.538;-0.084;2022-08-25T10:23:33;27.60;58.80
34231;DHT22;21574;51.538;-0.084;2022-08-25T10:26:02;27.60;58.80
34231;DHT22;21574;51.538;-0.084;2022-08-25T10:28:35;27.60;58.80
34231;DHT22;21574;51.538;-0.084;2022-08-25T10:36:21;27.60;58.80
34231;DHT22;21574;51.538;-0.084;2022-08-25T10:38:51;27.60;58.80
34231;DHT22;21574;51.538;-0.084;2022-08-25T10:46:30;27.60;58.70
34231;DHT22;21574;51.538;-0.084;2022-08-25T10:49:11;27.60;58.70
34231;DHT22;21574;51.538;-0.084;2022-08-25T11:04:40;27.60;58.80
34231;DHT22;21574;51.538;-0.084;2022-08-25T11:07:12;27.60;58.80
34231;DHT22;21574;51.538;-0.084;2022-08-25T11:09:40;27.60;58.80
34231;DHT22;21574;51.538;-0.084;2022-08-25T11:12:09;27.60;58.80
34231;DHT22;21574;51.538;-0.084;2022-08-25T11:14:56;27.60;58.80
34231;DHT22;21574;51.538;-0.084;2022-08-25T11:17:25;27.60;58.90
34231;DHT22;21574;51.538;-0.084;2022-08-25T11:19:52;27.50;58.70
34231;DHT22;21574;51.538;-0.084;2022-08-25T11:25:01;27.50;58.80
34231;DHT22;21574;51.538;-0.084;2022-08-25T11:27:36;27.50;58.80
34231;DHT22;21574;51.538;-0.084;2022-08-25T11:30:07;27.50;58.80
34231;DHT22;21574;51.538;-0.084;2022-08-25T11:32:34;27.50;58.90
34231;DHT22;21574;51.538;-0.084;2022-08-25T11:35:01;27.50;58.90
34231;DHT22;21574;51.538;-0.084;2022-08-25T11:37:27;27.50;58.90
34231;DHT22;21574;51.538;-0.084;2022-08-25T11:39:59;27.60;58.90
34231;DHT22;21574;51.538;-0.084;2022-08-25T11:55:11;27.60;58.90
34231;DHT22;21574;51.538;-0.084;2022-08-25T11:57:37;27.60;58.90
34231;DHT22;21574;51.538;-0.084;2022-08-25T12:00:48;27.60;58.90
34231;DHT22;21574;51.538;-0.084;2022-08-25T12:02:49;27.60;58.90
34231;DHT22;21574;51.538;-0.084;2022-08-25T12:10:22;27.60;59.00
34231;DHT22;21574;51.538;-0.084;2022-08-25T12:12:56;27.60;58.90
34231;DHT22;21574;51.538;-0.084;2022-08-25T12:15:22;27.60;59.00
34231;DHT22;21574;51.538;-0.084;2022-08-25T12:18:08;27.60;59.00
34231;DHT22;21574;51.538;-0.084;2022-08-25T12:25:52;27.60;59.00
34231;DHT22;21574;51.538;-0.084;2022-08-25T12:28:33;27.60;59.10
34231;DHT22;21574;51.538;-0.084;2022-08-25T12:31:02;27.60;59.10
34231;DHT22;21574;51.538;-0.084;2022-08-25T12:36:05;27.60;59.00
34231;DHT22;21574;51.538;-0.084;2022-08-25T12:38:34;27.60;59.00
34231;DHT22;21574;51.538;-0.084;2022-08-25T12:43:31;27.60;59.00
34231;DHT22;21574;51.538;-0.084;2022-08-25T12:48:52;27.60;59.10
34231;DHT22;21574;51.538;-0.084;2022-08-25T12:51:19;27.60;59.00
34231;DHT22;21574;51.538;-0.084;2022-08-25T12:53:46;27.60;59.00
34231;DHT22;21574;51.538;-0.084;2022-08-25T12:56:20;27.60;59.00
34231;DHT22;21574;51.538;-0.084;2022-08-25T12:58:48;27.60;59.00
34231;DHT22;21574;51.538;-0.084;2022-08-25T13:01:27;27.60;59.00
34231;DHT22;21574;51.538;-0.084;2022-08-25T13:04:07;27.60;59.00
34231;DHT22;21574;51.538;-0.084;2022-08-25T13:06:51;27.60;58.90
34231;DHT22;21574;51.538;-0.084;2022-08-25T13:16:53;27.60;58.80
34231;DHT22;21574;51.538;-0.084;2022-08-25T13:19:19;27.50;58.70
34231;DHT22;21574;51.538;-0.084;2022-08-25T13:21:45;27.50;58.60
34231;DHT22;21574;51.538;-0.084;2022-08-25T13:24:13;27.60;58.60
34231;DHT22;21574;51.538;-0.084;2022-08-25T13:26:41;27.50;58.50
34231;DHT22;21574;51.538;-0.084;2022-08-25T13:31:33;27.60;58.50
34231;DHT22;21574;51.538;-0.084;2022-08-25T13:34:00;27.50;58.50
34231;DHT22;21574;51.538;-0.084;2022-08-25T13:36:30;27.50;58.50
34231;DHT22;21574;51.538;-0.084;2022-08-25T13:39:16;27.50;58.50
34231;DHT22;21574;51.538;-0.084;2022-08-25T13:41:43;27.50;58.50
34231;DHT22;21574;51.538;-0.084;2022-08-25T13:44:08;27.50;58.40
34231;DHT22;21574;51.538;-0.084;2022-08-25T13:46:34;27.50;58.50
34231;DHT22;21574;51.538;-0.084;2022-08-25T13:49:04;27.50;58.40
34231;DHT22;21574;51.538;-0.084;2022-08-25T13:51:29;27.50;58.40
34231;DHT22;21574;51.538;-0.084;2022-08-25T13:53:56;27.50;58.30
34231;DHT22;21574;51.538;-0.084;2022-08-25T13:56:23;27.50;58.30
34231;DHT22;21574;51.538;-0.084;2022-08-25T13:58:49;27.50;58.30
34231;DHT22;21574;51.538;-0.084;2022-08-25T14:01:19;27.50;58.30
34231;DHT22;21574;51.538;-0.084;2022-08-25T14:03:47;27.50;58.30
34231;DHT22;21574;51.538;-0.084;2022-08-25T14:08:39;27.60;58.90
34231;DHT22;21574;51.538;-0.084;2022-08-25T14:13:57;27.50;58.30
34231;DHT22;21574;51.538;-0.084;2022-08-25T14:16:23;27.50;58.30
34231;DHT22;21574;51.538;-0.084;2022-08-25T14:18:49;27.50;58.30
34231;DHT22;21574;51.538;-0.084;2022-08-25T14:21:16;27.50;58.30
34231;DHT22;21574;51.538;-0.084;2022-08-25T14:23:42;27.60;58.30
34231;DHT22;21574;51.538;-0.084;2022-08-25T14:26:08;27.50;58.30
34231;DHT22;21574;51.538;-0.084;2022-08-25T14:28:34;27.50;58.30
34231;DHT22;21574;51.538;-0.084;2022-08-25T14:34:03;27.50;58.30
34231;DHT22;21574;51.538;-0.084;2022-08-25T14:36:30;27.50;58.40
34231;DHT22;21574;51.538;-0.084;2022-08-25T14:38:55;27.50;58.30
34231;DHT22;21574;51.538;-0.084;2022-08-25T14:41:22;27.50;58.30
34231;DHT22;21574;51.538;-0.084;2022-08-25T14:43:48;27.50;58.30
34231;DHT22;21574;51.538;-0.084;2022-08-25T14:46:17;27.50;58.30
34231;DHT22;21574;51.538;-0.084;2022-08-25T14:48:44;27.50;58.30
34231;DHT22;21574;51.538;-0.084;2022-08-25T14:51:10;27.50;58.30
34231;DHT22;21574;51.538;-0.084;2022-08-25T14:53:37;27.50;58.30
34231;DHT22;21574;51.538;-0.084;2022-08-25T14:56:02;27.40;58.30
34231;DHT22;21574;51.538;-0.084;2022-08-25T14:58:28;27.40;58.20
34231;DHT22;21574;51.538;-0.084;2022-08-25T15:00:53;27.50;58.30
34231;DHT22;21574;51.538;-0.084;2022-08-25T15:03:27;27.50;58.30
34231;DHT22;21574;51.538;-0.084;2022-08-25T15:05:53;27.50;58.20
34231;DHT22;21574;51.538;-0.084;2022-08-25T15:08:19;27.40;58.10
34231;DHT22;21574;51.538;-0.084;2022-08-25T15:11:03;27.40;58.10
34231;DHT22;21574;51.538;-0.084;2022-08-25T15:13:29;27.50;58.10
34231;DHT22;21574;51.538;-0.084;2022-08-25T15:15:54;27.50;58.10
34231;DHT22;21574;51.538;-0.084;2022-08-25T15:18:20;27.40;57.90
34231;DHT22;21574;51.538;-0.084;2022-08-25T15:20:46;27.50;57.90
34231;DHT22;21574;51.538;-0.084;2022-08-25T15:23:11;27.40;57.80
34231;DHT22;21574;51.538;-0.084;2022-08-25T15:25:37;27.40;57.70
34231;DHT22;21574;51.538;-0.084;2022-08-25T15:28:04;27.40;57.70
34231;DHT22;21574;51.538;-0.084;2022-08-25T15:30:30;27.40;57.60
34231;DHT22;21574;51.538;-0.084;2022-08-25T15:32:55;27.40;57.70
34231;DHT22;21574;51.538;-0.084;2022-08-25T15:35:21;27.40;57.60
34231;DHT22;21574;51.538;-0.084;2022-08-25T15:37:46;27.40;57.50
34231;DHT22;21574;51.538;-0.084;2022-08-25T15:40:12;27.40;57.50
34231;DHT22;21574;51.538;-0.084;2022-08-25T15:42:38;27.40;57.40
34231;DHT22;21574;51.538;-0.084;2022-08-25T15:45:04;27.40;57.30
34231;DHT22;21574;51.538;-0.084;2022-08-25T15:47:29;27.40;57.30
34231;DHT22;21574;51.538;-0.084;2022-08-25T15:50:06;27.40;57.20
34231;DHT22;21574;51.538;-0.084;2022-08-25T15:52:32;27.40;57.20
34231;DHT22;21574;51.538;-0.084;2022-08-25T15:54:58;27.40;57.20
34231;DHT22;21574;51.538;-0.084;2022-08-25T15:57:23;27.40;57.50
34231;DHT22;21574;51.538;-0.084;2022-08-25T15:59:49;27.40;57.20
34231;DHT22;21574;51.538;-0.084;2022-08-25T16:02:14;27.40;57.30
34231;DHT22;21574;51.538;-0.084;2022-08-25T16:04:40;27.40;57.30
34231;DHT22;21574;51.538;-0.084;2022-08-25T16:07:05;27.40;57.30
34231;DHT22;21574;51.538;-0.084;2022-08-25T16:09:31;27.40;57.30
34231;DHT22;21574;51.538;-0.084;2022-08-25T16:11:56;27.40;57.30
34231;DHT22;21574;51.538;-0.084;2022-08-25T16:14:22;27.40;57.20
34231;DHT22;21574;51.538;-0.084;2022-08-25T16:16:47;27.40;57.20
34231;DHT22;21574;51.538;-0.084;2022-08-25T16:19:12;27.40;57.20
34231;DHT22;21574;51.538;-0.084;2022-08-25T16:21:39;27.40;57.20
34231;DHT22;21574;51.538;-0.084;2022-08-25T16:24:05;27.40;57.20
34231;DHT22;21574;51.538;-0.084;2022-08-25T16:26:31;27.40;57.20
34231;DHT22;21574;51.538;-0.084;2022-08-25T16:28:57;27.40;57.10
34231;DHT22;21574;51.538;-0.084;2022-08-25T16:31:22;27.30;57.00
34231;DHT22;21574;51.538;-0.084;2022-08-25T16:33:48;27.30;56.90
34231;DHT22;21574;51.538;-0.084;2022-08-25T16:36:15;27.30;56.90
34231;DHT22;21574;51.538;-0.084;2022-08-25T16:38:41;27.30;56.90
34231;DHT22;21574;51.538;-0.084;2022-08-25T16:41:08;27.30;56.90
34231;DHT22;21574;51.538;-0.084;2022-08-25T16:43:33;27.30;57.40
34231;DHT22;21574;51.538;-0.084;2022-08-25T16:46:00;27.30;57.30
34231;DHT22;21574;51.538;-0.084;2022-08-25T16:48:26;27.30;56.80
34231;DHT22;21574;51.538;-0.084;2022-08-25T16:50:52;27.30;56.80
34231;DHT22;21574;51.538;-0.084;2022-08-25T16:53:17;27.30;56.80
34231;DHT22;21574;51.538;-0.084;2022-08-25T16:56:02;27.30;56.70
34231;DHT22;21574;51.538;-0.084;2022-08-25T16:58:27;27.30;56.70